sensor_id;sensor_type;location;lat;lon;timestamp;P1;durP1;ratioP1;P2;durP2;ratioP2
42866;SDS011;39461;40.948;73.006;2023-06-24T00:01:25;19.90;;;6.88;;
42866;SDS011;39461;40.948;73.006;2023-06-24T00:04:01;12.15;;;6.50;;
42866;SDS011;39461;40.948;73.006;2023-06-24T00:06:34;12.75;;;6.25;;
42866;SDS011;39461;40.948;73.006;2023-06-24T00:09:08;14.70;;;6.00;;
42866;SDS011;39461;40.948;73.006;2023-06-24T00:11:41;20.27;;;6.40;;
42866;SDS011;39461;40.948;73.006;2023-06-24T00:14:15;15.45;;;6.72;;
42866;SDS011;39461;40.948;73.006;2023-06-24T00:16:54;16.73;;;6.68;;
42866;SDS011;39461;40.948;73.006;2023-06-24T00:19:27;15.48;;;5.65;;
42866;SDS011;39461;40.948;73.006;2023-06-24T00:22:05;17.80;;;6.88;;
42866;SDS011;39461;40.948;73.006;2023-06-24T00:24:40;21.50;;;7.03;;
42866;SDS011;39461;40.948;73.006;2023-06-24T00:27:16;17.95;;;6.85;;
42866;SDS011;39461;40.948;73.006;2023-06-24T00:29:51;12.55;;;6.97;;
42866;SDS011;39461;40.948;73.006;2023-06-24T00:32:28;14.05;;;6.18;;
42866;SDS011;39461;40.948;73.006;2023-06-24T00:35:03;19.00;;;6.65;;
42866;SDS011;39461;40.948;73.006;2023-06-24T00:37:38;13.45;;;7.22;;
42866;SDS011;39461;40.948;73.006;2023-06-24T00:40:15;21.83;;;7.32;;
42866;SDS011;39461;40.948;73.006;2023-06-24T00:42:50;14.90;;;7.13;;
42866;SDS011;39461;40.948;73.006;2023-06-24T00:45:25;20.98;;;8.15;;
42866;SDS011;39461;40.948;73.006;2023-06-24T00:47:53;18.05;;;7.60;;
42866;SDS011;39461;40.948;73.006;2023-06-24T00:50:28;17.10;;;6.40;;
42866;SDS011;39461;40.948;73.006;2023-06-24T00:53:01;16.52;;;6.78;;
42866;SDS011;39461;40.948;73.006;2023-06-24T00:55:34;18.88;;;6.32;;
42866;SDS011;39461;40.948;73.006;2023-06-24T00:58:08;16.05;;;6.07;;
42866;SDS011;39461;40.948;73.006;2023-06-24T01:00:42;13.00;;;6.20;;
42866;SDS011;39461;40.948;73.006;2023-06-24T01:03:19;20.42;;;8.00;;
42866;SDS011;39461;40.948;73.006;2023-06-24T01:05:54;19.52;;;7.88;;
42866;SDS011;39461;40.948;73.006;2023-06-24T01:08:29;14.70;;;7.60;;
42866;SDS011;39461;40.948;73.006;2023-06-24T01:11:05;17.27;;;5.53;;
42866;SDS011;39461;40.948;73.006;2023-06-24T01:13:40;19.88;;;6.63;;
42866;SDS011;39461;40.948;73.006;2023-06-24T01:16:18;15.73;;;6.57;;
42866;SDS011;39461;40.948;73.006;2023-06-24T01:18:56;31.92;;;10.68;;
42866;SDS011;39461;40.948;73.006;2023-06-24T01:24:30;15.05;;;5.82;;
42866;SDS011;39461;40.948;73.006;2023-06-24T01:35:07;11.85;;;5.28;;
42866;SDS011;39461;40.948;73.006;2023-06-24T01:37:36;14.05;;;5.20;;
42866;SDS011;39461;40.948;73.006;2023-06-24T01:40:14;10.93;;;5.38;;
42866;SDS011;39461;40.948;73.006;2023-06-24T01:42:51;15.65;;;5.47;;
42866;SDS011;39461;40.948;73.006;2023-06-24T01:45:29;15.93;;;6.80;;
42866;SDS011;39461;40.948;73.006;2023-06-24T01:48:21;14.23;;;6.97;;
42866;SDS011;39461;40.948;73.006;2023-06-24T01:50:58;16.50;;;5.70;;
42866;SDS011;39461;40.948;73.006;2023-06-24T01:53:36;12.88;;;5.45;;
42866;SDS011;39461;40.948;73.006;2023-06-24T01:56:16;10.55;;;5.35;;
42866;SDS011;39461;40.948;73.006;2023-06-24T01:58:52;14.15;;;5.60;;
42866;SDS011;39461;40.948;73.006;2023-06-24T02:01:33;12.38;;;5.47;;
42866;SDS011;39461;40.948;73.006;2023-06-24T02:04:09;10.25;;;5.13;;
42866;SDS011;39461;40.948;73.006;2023-06-24T02:06:49;13.05;;;5.85;;
42866;SDS011;39461;40.948;73.006;2023-06-24T02:09:28;15.85;;;5.45;;
42866;SDS011;39461;40.948;73.006;2023-06-24T02:15:03;13.90;;;5.57;;
42866;SDS011;39461;40.948;73.006;2023-06-24T02:17:40;13.00;;;5.30;;
42866;SDS011;39461;40.948;73.006;2023-06-24T02:20:16;12.98;;;5.55;;
42866;SDS011;39461;40.948;73.006;2023-06-24T02:22:52;15.25;;;6.40;;
42866;SDS011;39461;40.948;73.006;2023-06-24T02:25:28;23.75;;;7.80;;
42866;SDS011;39461;40.948;73.006;2023-06-24T02:28:03;19.35;;;7.30;;
42866;SDS011;39461;40.948;73.006;2023-06-24T02:30:38;25.27;;;6.88;;
42866;SDS011;39461;40.948;73.006;2023-06-24T02:33:14;20.35;;;8.48;;
42866;SDS011;39461;40.948;73.006;2023-06-24T02:35:49;18.60;;;7.40;;
42866;SDS011;39461;40.948;73.006;2023-06-24T02:38:24;20.60;;;7.53;;
42866;SDS011;39461;40.948;73.006;2023-06-24T02:40:59;17.90;;;7.50;;
42866;SDS011;39461;40.948;73.006;2023-06-24T02:43:38;11.65;;;5.63;;
42866;SDS011;39461;40.948;73.006;2023-06-24T02:46:12;14.10;;;6.05;;
42866;SDS011;39461;40.948;73.006;2023-06-24T02:48:49;12.30;;;5.47;;
42866;SDS011;39461;40.948;73.006;2023-06-24T02:51:16;23.52;;;6.63;;
42866;SDS011;39461;40.948;73.006;2023-06-24T02:53:51;15.05;;;7.00;;
42866;SDS011;39461;40.948;73.006;2023-06-24T02:56:26;17.40;;;5.65;;
42866;SDS011;39461;40.948;73.006;2023-06-24T02:59:02;14.10;;;6.88;;
42866;SDS011;39461;40.948;73.006;2023-06-24T03:01:37;37.85;;;14.55;;
42866;SDS011;39461;40.948;73.006;2023-06-24T03:04:13;20.90;;;8.65;;
42866;SDS011;39461;40.948;73.006;2023-06-24T03:06:48;21.08;;;8.13;;
42866;SDS011;39461;40.948;73.006;2023-06-24T03:09:26;16.42;;;5.50;;
42866;SDS011;39461;40.948;73.006;2023-06-24T03:12:01;17.52;;;4.70;;
42866;SDS011;39461;40.948;73.006;2023-06-24T03:14:36;11.02;;;4.32;;
42866;SDS011;39461;40.948;73.006;2023-06-24T03:17:11;12.85;;;4.68;;
42866;SDS011;39461;40.948;73.006;2023-06-24T03:19:47;9.68;;;4.35;;
42866;SDS011;39461;40.948;73.006;2023-06-24T03:25:20;15.13;;;5.32;;
42866;SDS011;39461;40.948;73.006;2023-06-24T03:27:55;10.55;;;4.75;;
42866;SDS011;39461;40.948;73.006;2023-06-24T03:30:30;14.43;;;4.50;;
42866;SDS011;39461;40.948;73.006;2023-06-24T03:33:05;13.75;;;3.92;;
42866;SDS011;39461;40.948;73.006;2023-06-24T03:35:49;15.00;;;4.95;;
42866;SDS011;39461;40.948;73.006;2023-06-24T03:38:22;9.20;;;4.00;;
42866;SDS011;39461;40.948;73.006;2023-06-24T03:40:57;11.85;;;3.70;;
42866;SDS011;39461;40.948;73.006;2023-06-24T03:43:30;10.32;;;3.92;;
42866;SDS011;39461;40.948;73.006;2023-06-24T03:45:59;21.00;;;5.32;;
42866;SDS011;39461;40.948;73.006;2023-06-24T03:48:26;10.90;;;3.53;;
42866;SDS011;39461;40.948;73.006;2023-06-24T03:53:59;25.30;;;5.00;;
42866;SDS011;39461;40.948;73.006;2023-06-24T03:56:35;10.73;;;3.17;;
42866;SDS011;39461;40.948;73.006;2023-06-24T03:59:01;12.60;;;3.30;;
42866;SDS011;39461;40.948;73.006;2023-06-24T04:04:35;15.45;;;3.55;;
42866;SDS011;39461;40.948;73.006;2023-06-24T04:07:10;20.45;;;4.85;;
42866;SDS011;39461;40.948;73.006;2023-06-24T04:09:39;16.65;;;3.83;;
42866;SDS011;39461;40.948;73.006;2023-06-24T04:12:14;13.73;;;3.10;;
42866;SDS011;39461;40.948;73.006;2023-06-24T04:14:49;9.93;;;3.00;;
42866;SDS011;39461;40.948;73.006;2023-06-24T04:17:24;20.13;;;3.88;;
42866;SDS011;39461;40.948;73.006;2023-06-24T04:19:59;11.32;;;3.05;;
42866;SDS011;39461;40.948;73.006;2023-06-24T04:22:36;19.45;;;3.85;;
42866;SDS011;39461;40.948;73.006;2023-06-24T04:25:04;11.93;;;3.63;;
42866;SDS011;39461;40.948;73.006;2023-06-24T04:27:40;17.58;;;4.00;;
42866;SDS011;39461;40.948;73.006;2023-06-24T04:30:14;7.93;;;2.65;;
42866;SDS011;39461;40.948;73.006;2023-06-24T04:32:50;17.42;;;3.00;;
42866;SDS011;39461;40.948;73.006;2023-06-24T04:35:25;9.85;;;3.10;;
42866;SDS011;39461;40.948;73.006;2023-06-24T04:37:56;11.40;;;4.25;;
42866;SDS011;39461;40.948;73.006;2023-06-24T04:40:22;12.52;;;3.10;;
42866;SDS011;39461;40.948;73.006;2023-06-24T04:42:49;5.45;;;2.40;;
42866;SDS011;39461;40.948;73.006;2023-06-24T04:45:18;14.60;;;4.43;;
42866;SDS011;39461;40.948;73.006;2023-06-24T04:47:48;31.88;;;5.65;;
42866;SDS011;39461;40.948;73.006;2023-06-24T04:50:17;19.83;;;3.65;;
42866;SDS011;39461;40.948;73.006;2023-06-24T04:52:54;8.25;;;3.70;;
42866;SDS011;39461;40.948;73.006;2023-06-24T04:55:28;13.60;;;3.50;;
42866;SDS011;39461;40.948;73.006;2023-06-24T04:58:03;11.02;;;4.20;;
42866;SDS011;39461;40.948;73.006;2023-06-24T05:00:36;13.93;;;3.40;;
42866;SDS011;39461;40.948;73.006;2023-06-24T05:03:09;15.38;;;4.60;;
42866;SDS011;39461;40.948;73.006;2023-06-24T05:05:36;9.32;;;3.53;;
42866;SDS011;39461;40.948;73.006;2023-06-24T05:08:11;9.40;;;3.10;;
42866;SDS011;39461;40.948;73.006;2023-06-24T05:10:38;13.68;;;3.45;;
42866;SDS011;39461;40.948;73.006;2023-06-24T05:13:13;15.65;;;3.58;;
42866;SDS011;39461;40.948;73.006;2023-06-24T05:15:48;11.15;;;3.33;;
42866;SDS011;39461;40.948;73.006;2023-06-24T05:18:24;6.63;;;3.30;;
42866;SDS011;39461;40.948;73.006;2023-06-24T05:20:59;6.38;;;2.65;;
42866;SDS011;39461;40.948;73.006;2023-06-24T05:23:33;9.93;;;3.53;;
42866;SDS011;39461;40.948;73.006;2023-06-24T05:26:09;6.05;;;3.00;;
42866;SDS011;39461;40.948;73.006;2023-06-24T05:28:45;13.70;;;4.10;;
42866;SDS011;39461;40.948;73.006;2023-06-24T05:34:20;6.63;;;3.47;;
42866;SDS011;39461;40.948;73.006;2023-06-24T05:36:52;12.60;;;3.80;;
42866;SDS011;39461;40.948;73.006;2023-06-24T05:39:32;10.68;;;4.05;;
42866;SDS011;39461;40.948;73.006;2023-06-24T05:42:05;13.00;;;4.60;;
42866;SDS011;39461;40.948;73.006;2023-06-24T05:44:38;8.65;;;4.30;;
42866;SDS011;39461;40.948;73.006;2023-06-24T05:47:10;8.60;;;3.70;;
42866;SDS011;39461;40.948;73.006;2023-06-24T05:49:39;8.45;;;3.47;;
42866;SDS011;39461;40.948;73.006;2023-06-24T05:52:16;11.75;;;4.13;;
42866;SDS011;39461;40.948;73.006;2023-06-24T05:54:51;14.77;;;4.88;;
42866;SDS011;39461;40.948;73.006;2023-06-24T05:57:27;12.48;;;4.15;;
42866;SDS011;39461;40.948;73.006;2023-06-24T05:59:58;9.77;;;3.30;;
42866;SDS011;39461;40.948;73.006;2023-06-24T06:02:25;9.98;;;3.33;;
42866;SDS011;39461;40.948;73.006;2023-06-24T06:04:54;9.00;;;3.60;;
42866;SDS011;39461;40.948;73.006;2023-06-24T06:07:33;13.18;;;3.60;;
42866;SDS011;39461;40.948;73.006;2023-06-24T06:10:05;7.43;;;3.67;;
42866;SDS011;39461;40.948;73.006;2023-06-24T06:12:41;10.55;;;3.42;;
42866;SDS011;39461;40.948;73.006;2023-06-24T06:15:14;11.18;;;3.80;;
42866;SDS011;39461;40.948;73.006;2023-06-24T06:17:49;14.55;;;8.13;;
42866;SDS011;39461;40.948;73.006;2023-06-24T06:20:22;8.45;;;3.45;;
42866;SDS011;39461;40.948;73.006;2023-06-24T06:22:55;16.70;;;4.72;;
42866;SDS011;39461;40.948;73.006;2023-06-24T06:25:25;16.95;;;5.07;;
42866;SDS011;39461;40.948;73.006;2023-06-24T06:28:00;14.45;;;4.25;;
42866;SDS011;39461;40.948;73.006;2023-06-24T06:30:35;13.23;;;4.97;;
42866;SDS011;39461;40.948;73.006;2023-06-24T06:33:10;11.60;;;3.92;;
42866;SDS011;39461;40.948;73.006;2023-06-24T06:35:45;11.80;;;4.40;;
42866;SDS011;39461;40.948;73.006;2023-06-24T06:38:18;9.63;;;4.40;;
42866;SDS011;39461;40.948;73.006;2023-06-24T06:40:51;16.98;;;5.10;;
42866;SDS011;39461;40.948;73.006;2023-06-24T06:43:24;12.18;;;4.72;;
42866;SDS011;39461;40.948;73.006;2023-06-24T06:45:53;16.00;;;5.30;;
42866;SDS011;39461;40.948;73.006;2023-06-24T06:48:26;25.45;;;5.95;;
42866;SDS011;39461;40.948;73.006;2023-06-24T06:50:58;13.05;;;4.88;;
42866;SDS011;39461;40.948;73.006;2023-06-24T06:53:31;17.90;;;5.32;;
42866;SDS011;39461;40.948;73.006;2023-06-24T06:56:04;10.18;;;4.22;;
42866;SDS011;39461;40.948;73.006;2023-06-24T06:58:37;20.17;;;5.43;;
42866;SDS011;39461;40.948;73.006;2023-06-24T07:01:11;23.05;;;5.50;;
42866;SDS011;39461;40.948;73.006;2023-06-24T07:03:44;22.10;;;5.25;;
42866;SDS011;39461;40.948;73.006;2023-06-24T07:06:19;11.27;;;4.93;;
42866;SDS011;39461;40.948;73.006;2023-06-24T07:08:48;18.15;;;5.22;;
42866;SDS011;39461;40.948;73.006;2023-06-24T07:11:21;10.70;;;4.80;;
42866;SDS011;39461;40.948;73.006;2023-06-24T07:13:54;16.75;;;4.65;;
42866;SDS011;39461;40.948;73.006;2023-06-24T07:16:32;16.88;;;5.30;;
42866;SDS011;39461;40.948;73.006;2023-06-24T07:19:07;12.02;;;4.25;;
42866;SDS011;39461;40.948;73.006;2023-06-24T07:21:37;15.55;;;5.28;;
42866;SDS011;39461;40.948;73.006;2023-06-24T07:24:13;18.67;;;5.30;;
42866;SDS011;39461;40.948;73.006;2023-06-24T07:26:49;15.88;;;5.32;;
42866;SDS011;39461;40.948;73.006;2023-06-24T07:29:22;16.73;;;5.50;;
42866;SDS011;39461;40.948;73.006;2023-06-24T07:31:55;13.20;;;4.43;;
42866;SDS011;39461;40.948;73.006;2023-06-24T07:34:28;14.25;;;5.47;;
42866;SDS011;39461;40.948;73.006;2023-06-24T07:37:02;8.13;;;4.90;;
42866;SDS011;39461;40.948;73.006;2023-06-24T07:39:37;15.88;;;5.53;;
42866;SDS011;39461;40.948;73.006;2023-06-24T07:42:06;13.30;;;5.20;;
42866;SDS011;39461;40.948;73.006;2023-06-24T07:44:39;19.88;;;5.43;;
42866;SDS011;39461;40.948;73.006;2023-06-24T07:47:09;14.18;;;5.10;;
42866;SDS011;39461;40.948;73.006;2023-06-24T07:49:42;13.73;;;4.95;;
42866;SDS011;39461;40.948;73.006;2023-06-24T07:52:14;19.13;;;5.47;;
42866;SDS011;39461;40.948;73.006;2023-06-24T07:54:46;16.77;;;5.43;;
42866;SDS011;39461;40.948;73.006;2023-06-24T07:57:17;15.77;;;5.40;;
42866;SDS011;39461;40.948;73.006;2023-06-24T07:59:50;12.57;;;5.38;;
42866;SDS011;39461;40.948;73.006;2023-06-24T08:02:23;11.40;;;5.03;;
42866;SDS011;39461;40.948;73.006;2023-06-24T08:04:53;17.67;;;5.82;;
42866;SDS011;39461;40.948;73.006;2023-06-24T08:07:27;13.55;;;5.30;;
42866;SDS011;39461;40.948;73.006;2023-06-24T08:10:01;10.88;;;5.70;;
42866;SDS011;39461;40.948;73.006;2023-06-24T08:12:32;11.73;;;5.00;;
42866;SDS011;39461;40.948;73.006;2023-06-24T08:15:04;12.13;;;5.13;;
42866;SDS011;39461;40.948;73.006;2023-06-24T08:17:33;13.45;;;5.55;;
42866;SDS011;39461;40.948;73.006;2023-06-24T08:20:04;12.63;;;5.43;;
42866;SDS011;39461;40.948;73.006;2023-06-24T08:22:36;15.48;;;5.32;;
42866;SDS011;39461;40.948;73.006;2023-06-24T08:25:05;12.65;;;5.40;;
42866;SDS011;39461;40.948;73.006;2023-06-24T08:27:38;10.95;;;4.50;;
42866;SDS011;39461;40.948;73.006;2023-06-24T08:30:09;12.40;;;5.38;;
42866;SDS011;39461;40.948;73.006;2023-06-24T08:32:40;16.17;;;5.47;;
42866;SDS011;39461;40.948;73.006;2023-06-24T08:46:58;12.05;;;5.30;;
42866;SDS011;39461;40.948;73.006;2023-06-24T08:49:30;15.50;;;5.47;;
42866;SDS011;39461;40.948;73.006;2023-06-24T08:52:08;12.55;;;4.72;;
42866;SDS011;39461;40.948;73.006;2023-06-24T08:54:40;12.95;;;8.82;;
42866;SDS011;39461;40.948;73.006;2023-06-24T08:57:11;11.45;;;5.65;;
42866;SDS011;39461;40.948;73.006;2023-06-24T08:59:47;12.70;;;4.35;;
42866;SDS011;39461;40.948;73.006;2023-06-24T09:02:22;17.40;;;5.03;;
42866;SDS011;39461;40.948;73.006;2023-06-24T09:04:57;8.48;;;4.53;;
42866;SDS011;39461;40.948;73.006;2023-06-24T09:07:27;10.77;;;4.35;;
42866;SDS011;39461;40.948;73.006;2023-06-24T09:10:00;17.33;;;4.47;;
42866;SDS011;39461;40.948;73.006;2023-06-24T09:12:33;12.30;;;4.75;;
42866;SDS011;39461;40.948;73.006;2023-06-24T09:15:07;7.25;;;3.83;;
42866;SDS011;39461;40.948;73.006;2023-06-24T09:17:47;11.20;;;4.68;;
42866;SDS011;39461;40.948;73.006;2023-06-24T09:20:21;16.08;;;5.10;;
42866;SDS011;39461;40.948;73.006;2023-06-24T09:22:59;18.02;;;5.85;;
42866;SDS011;39461;40.948;73.006;2023-06-24T09:25:32;22.83;;;5.50;;
42866;SDS011;39461;40.948;73.006;2023-06-24T09:28:05;19.70;;;5.43;;
42866;SDS011;39461;40.948;73.006;2023-06-24T09:30:37;16.38;;;5.05;;
42866;SDS011;39461;40.948;73.006;2023-06-24T09:33:10;23.08;;;5.80;;
42866;SDS011;39461;40.948;73.006;2023-06-24T09:35:44;13.10;;;5.20;;
42866;SDS011;39461;40.948;73.006;2023-06-24T09:38:19;12.85;;;5.35;;
42866;SDS011;39461;40.948;73.006;2023-06-24T09:41:08;27.02;;;5.60;;
42866;SDS011;39461;40.948;73.006;2023-06-24T09:43:37;10.43;;;5.22;;
42866;SDS011;39461;40.948;73.006;2023-06-24T09:46:16;17.13;;;5.47;;
42866;SDS011;39461;40.948;73.006;2023-06-24T09:48:51;24.58;;;5.28;;
42866;SDS011;39461;40.948;73.006;2023-06-24T09:51:26;15.25;;;5.00;;
42866;SDS011;39461;40.948;73.006;2023-06-24T09:54:01;12.80;;;4.68;;
42866;SDS011;39461;40.948;73.006;2023-06-24T09:56:35;20.65;;;5.07;;
42866;SDS011;39461;40.948;73.006;2023-06-24T09:59:13;9.68;;;4.50;;
42866;SDS011;39461;40.948;73.006;2023-06-24T10:01:48;13.63;;;4.53;;
42866;SDS011;39461;40.948;73.006;2023-06-24T10:04:24;17.05;;;4.88;;
42866;SDS011;39461;40.948;73.006;2023-06-24T10:07:00;12.30;;;4.00;;
42866;SDS011;39461;40.948;73.006;2023-06-24T10:09:36;12.02;;;5.60;;
42866;SDS011;39461;40.948;73.006;2023-06-24T10:12:14;12.93;;;4.90;;
42866;SDS011;39461;40.948;73.006;2023-06-24T10:14:49;20.85;;;3.88;;
42866;SDS011;39461;40.948;73.006;2023-06-24T10:17:24;13.07;;;4.47;;
42866;SDS011;39461;40.948;73.006;2023-06-24T10:20:03;9.35;;;3.78;;
42866;SDS011;39461;40.948;73.006;2023-06-24T10:22:40;16.80;;;5.50;;
42866;SDS011;39461;40.948;73.006;2023-06-24T10:25:20;16.25;;;4.57;;
42866;SDS011;39461;40.948;73.006;2023-06-24T10:27:55;13.35;;;4.22;;
42866;SDS011;39461;40.948;73.006;2023-06-24T10:30:30;16.60;;;4.15;;
42866;SDS011;39461;40.948;73.006;2023-06-24T10:35:56;10.23;;;4.30;;
42866;SDS011;39461;40.948;73.006;2023-06-24T10:38:31;13.60;;;5.22;;
42866;SDS011;39461;40.948;73.006;2023-06-24T10:44:14;11.98;;;4.72;;
42866;SDS011;39461;40.948;73.006;2023-06-24T10:46:42;13.88;;;4.43;;
42866;SDS011;39461;40.948;73.006;2023-06-24T10:49:21;13.57;;;4.93;;
42866;SDS011;39461;40.948;73.006;2023-06-24T10:51:54;14.95;;;4.60;;
42866;SDS011;39461;40.948;73.006;2023-06-24T10:54:27;10.95;;;4.18;;
42866;SDS011;39461;40.948;73.006;2023-06-24T10:57:00;11.13;;;4.32;;
42866;SDS011;39461;40.948;73.006;2023-06-24T11:02:14;18.52;;;3.65;;
42866;SDS011;39461;40.948;73.006;2023-06-24T11:04:51;15.05;;;5.03;;
42866;SDS011;39461;40.948;73.006;2023-06-24T11:07:25;8.05;;;4.43;;
42866;SDS011;39461;40.948;73.006;2023-06-24T11:10:00;10.20;;;3.97;;
42866;SDS011;39461;40.948;73.006;2023-06-24T11:12:34;9.30;;;4.00;;
42866;SDS011;39461;40.948;73.006;2023-06-24T11:15:11;17.75;;;5.15;;
42866;SDS011;39461;40.948;73.006;2023-06-24T11:17:45;10.88;;;4.10;;
42866;SDS011;39461;40.948;73.006;2023-06-24T11:20:24;18.45;;;5.15;;
42866;SDS011;39461;40.948;73.006;2023-06-24T11:22:52;14.52;;;4.38;;
42866;SDS011;39461;40.948;73.006;2023-06-24T11:25:26;9.40;;;3.72;;
42866;SDS011;39461;40.948;73.006;2023-06-24T11:27:59;10.93;;;4.05;;
42866;SDS011;39461;40.948;73.006;2023-06-24T11:30:35;13.82;;;4.43;;
42866;SDS011;39461;40.948;73.006;2023-06-24T11:33:08;16.52;;;3.78;;
42866;SDS011;39461;40.948;73.006;2023-06-24T11:35:41;23.83;;;5.10;;
42866;SDS011;39461;40.948;73.006;2023-06-24T11:38:17;9.30;;;3.50;;
42866;SDS011;39461;40.948;73.006;2023-06-24T11:40:50;20.83;;;4.82;;
42866;SDS011;39461;40.948;73.006;2023-06-24T11:43:25;23.05;;;5.95;;
42866;SDS011;39461;40.948;73.006;2023-06-24T11:45:58;10.75;;;3.80;;
42866;SDS011;39461;40.948;73.006;2023-06-24T11:48:27;7.88;;;3.65;;
42866;SDS011;39461;40.948;73.006;2023-06-24T11:51:00;7.15;;;3.55;;
42866;SDS011;39461;40.948;73.006;2023-06-24T11:56:39;14.02;;;4.57;;
42866;SDS011;39461;40.948;73.006;2023-06-24T11:59:16;15.25;;;4.30;;
42866;SDS011;39461;40.948;73.006;2023-06-24T12:01:43;11.07;;;4.13;;
42866;SDS011;39461;40.948;73.006;2023-06-24T12:04:18;8.02;;;3.50;;
42866;SDS011;39461;40.948;73.006;2023-06-24T12:06:53;12.55;;;4.28;;
42866;SDS011;39461;40.948;73.006;2023-06-24T12:09:29;29.65;;;5.28;;
42866;SDS011;39461;40.948;73.006;2023-06-24T12:12:00;14.13;;;3.55;;
42866;SDS011;39461;40.948;73.006;2023-06-24T12:14:35;8.98;;;3.72;;
42866;SDS011;39461;40.948;73.006;2023-06-24T12:20:01;16.08;;;3.65;;
42866;SDS011;39461;40.948;73.006;2023-06-24T12:22:36;11.40;;;4.00;;
42866;SDS011;39461;40.948;73.006;2023-06-24T12:25:09;10.23;;;3.70;;
42866;SDS011;39461;40.948;73.006;2023-06-24T12:27:43;9.43;;;3.35;;
42866;SDS011;39461;40.948;73.006;2023-06-24T12:30:16;17.58;;;4.60;;
42866;SDS011;39461;40.948;73.006;2023-06-24T12:32:50;9.25;;;3.60;;
42866;SDS011;39461;40.948;73.006;2023-06-24T12:35:23;10.50;;;4.10;;
42866;SDS011;39461;40.948;73.006;2023-06-24T12:37:57;16.83;;;4.20;;
42866;SDS011;39461;40.948;73.006;2023-06-24T12:40:30;10.07;;;3.63;;
42866;SDS011;39461;40.948;73.006;2023-06-24T12:43:03;16.08;;;5.57;;
42866;SDS011;39461;40.948;73.006;2023-06-24T12:45:36;46.72;;;8.65;;
42866;SDS011;39461;40.948;73.006;2023-06-24T12:48:03;10.05;;;3.63;;
42866;SDS011;39461;40.948;73.006;2023-06-24T12:50:37;8.10;;;4.40;;
42866;SDS011;39461;40.948;73.006;2023-06-24T12:53:10;20.77;;;5.25;;
42866;SDS011;39461;40.948;73.006;2023-06-24T12:55:39;17.30;;;5.38;;
42866;SDS011;39461;40.948;73.006;2023-06-24T12:58:07;20.30;;;4.43;;
42866;SDS011;39461;40.948;73.006;2023-06-24T13:00:42;11.50;;;3.67;;
42866;SDS011;39461;40.948;73.006;2023-06-24T13:03:09;10.13;;;4.18;;
42866;SDS011;39461;40.948;73.006;2023-06-24T13:05:44;13.30;;;4.50;;
42866;SDS011;39461;40.948;73.006;2023-06-24T13:08:19;17.42;;;4.10;;
42866;SDS011;39461;40.948;73.006;2023-06-24T13:10:46;25.20;;;6.53;;
42866;SDS011;39461;40.948;73.006;2023-06-24T13:13:21;12.68;;;5.05;;
42866;SDS011;39461;40.948;73.006;2023-06-24T13:15:56;15.38;;;4.50;;
42866;SDS011;39461;40.948;73.006;2023-06-24T13:18:31;22.52;;;4.88;;
42866;SDS011;39461;40.948;73.006;2023-06-24T13:21:04;9.05;;;4.00;;
42866;SDS011;39461;40.948;73.006;2023-06-24T13:23:38;9.73;;;4.00;;
42866;SDS011;39461;40.948;73.006;2023-06-24T13:26:12;9.88;;;4.65;;
42866;SDS011;39461;40.948;73.006;2023-06-24T13:28:41;20.27;;;4.75;;
42866;SDS011;39461;40.948;73.006;2023-06-24T13:31:17;13.50;;;4.72;;
42866;SDS011;39461;40.948;73.006;2023-06-24T13:33:44;13.18;;;4.93;;
42866;SDS011;39461;40.948;73.006;2023-06-24T13:36:32;10.65;;;4.80;;
42866;SDS011;39461;40.948;73.006;2023-06-24T13:39:09;10.95;;;4.85;;
42866;SDS011;39461;40.948;73.006;2023-06-24T13:41:47;11.40;;;4.60;;
42866;SDS011;39461;40.948;73.006;2023-06-24T13:47:21;40.92;;;8.25;;
42866;SDS011;39461;40.948;73.006;2023-06-24T13:49:56;31.98;;;7.68;;
42866;SDS011;39461;40.948;73.006;2023-06-24T13:52:32;11.98;;;6.03;;
42866;SDS011;39461;40.948;73.006;2023-06-24T13:55:07;12.32;;;5.25;;
42866;SDS011;39461;40.948;73.006;2023-06-24T13:57:42;11.13;;;5.18;;
42866;SDS011;39461;40.948;73.006;2023-06-24T14:00:17;7.97;;;5.03;;
42866;SDS011;39461;40.948;73.006;2023-06-24T14:02:52;13.77;;;5.38;;
42866;SDS011;39461;40.948;73.006;2023-06-24T14:05:25;9.30;;;4.53;;
42866;SDS011;39461;40.948;73.006;2023-06-24T14:07:58;10.18;;;4.43;;
42866;SDS011;39461;40.948;73.006;2023-06-24T14:10:31;12.57;;;4.68;;
42866;SDS011;39461;40.948;73.006;2023-06-24T14:13:04;15.05;;;4.85;;
42866;SDS011;39461;40.948;73.006;2023-06-24T14:15:38;17.98;;;4.90;;
42866;SDS011;39461;40.948;73.006;2023-06-24T14:18:11;18.80;;;5.78;;
42866;SDS011;39461;40.948;73.006;2023-06-24T14:20:46;20.67;;;4.90;;
42866;SDS011;39461;40.948;73.006;2023-06-24T14:23:20;17.55;;;4.70;;
42866;SDS011;39461;40.948;73.006;2023-06-24T14:25:53;19.58;;;5.13;;
42866;SDS011;39461;40.948;73.006;2023-06-24T14:28:27;24.80;;;6.55;;
42866;SDS011;39461;40.948;73.006;2023-06-24T14:30:55;52.47;;;9.10;;
42866;SDS011;39461;40.948;73.006;2023-06-24T14:33:24;24.17;;;8.18;;
42866;SDS011;39461;40.948;73.006;2023-06-24T14:36:00;26.83;;;8.60;;
42866;SDS011;39461;40.948;73.006;2023-06-24T14:38:34;32.50;;;9.93;;
42866;SDS011;39461;40.948;73.006;2023-06-24T14:41:07;30.40;;;9.15;;
42866;SDS011;39461;40.948;73.006;2023-06-24T14:43:36;30.25;;;9.20;;
42866;SDS011;39461;40.948;73.006;2023-06-24T14:46:09;33.40;;;10.23;;
42866;SDS011;39461;40.948;73.006;2023-06-24T14:48:42;60.75;;;12.90;;
42866;SDS011;39461;40.948;73.006;2023-06-24T14:51:15;37.97;;;13.75;;
42866;SDS011;39461;40.948;73.006;2023-06-24T14:53:48;44.95;;;16.30;;
42866;SDS011;39461;40.948;73.006;2023-06-24T14:56:21;52.45;;;24.00;;
42866;SDS011;39461;40.948;73.006;2023-06-24T14:58:54;56.92;;;25.80;;
42866;SDS011;39461;40.948;73.006;2023-06-24T15:01:27;79.13;;;35.78;;
42866;SDS011;39461;40.948;73.006;2023-06-24T15:04:02;131.70;;;55.78;;
42866;SDS011;39461;40.948;73.006;2023-06-24T15:06:36;114.55;;;51.53;;
42866;SDS011;39461;40.948;73.006;2023-06-24T15:09:11;103.93;;;42.72;;
42866;SDS011;39461;40.948;73.006;2023-06-24T15:11:45;92.38;;;32.17;;
42866;SDS011;39461;40.948;73.006;2023-06-24T15:14:20;83.25;;;28.45;;
42866;SDS011;39461;40.948;73.006;2023-06-24T15:16:55;78.18;;;27.58;;
42866;SDS011;39461;40.948;73.006;2023-06-24T15:19:32;78.68;;;32.15;;
42866;SDS011;39461;40.948;73.006;2023-06-24T15:22:01;127.75;;;48.38;;
42866;SDS011;39461;40.948;73.006;2023-06-24T15:24:38;177.57;;;62.72;;
42866;SDS011;39461;40.948;73.006;2023-06-24T15:27:11;192.68;;;72.45;;
42866;SDS011;39461;40.948;73.006;2023-06-24T15:29:45;210.75;;;79.22;;
42866;SDS011;39461;40.948;73.006;2023-06-24T15:32:18;209.50;;;74.60;;
42866;SDS011;39461;40.948;73.006;2023-06-24T15:34:51;189.52;;;69.50;;
42866;SDS011;39461;40.948;73.006;2023-06-24T15:37:26;107.68;;;41.70;;
42866;SDS011;39461;40.948;73.006;2023-06-24T15:39:56;31.23;;;13.85;;
42866;SDS011;39461;40.948;73.006;2023-06-24T15:42:31;41.25;;;14.15;;
42866;SDS011;39461;40.948;73.006;2023-06-24T15:45:06;37.42;;;13.63;;
42866;SDS011;39461;40.948;73.006;2023-06-24T15:47:42;30.00;;;12.48;;
42866;SDS011;39461;40.948;73.006;2023-06-24T15:50:17;33.00;;;12.63;;
42866;SDS011;39461;40.948;73.006;2023-06-24T15:52:52;45.03;;;14.10;;
42866;SDS011;39461;40.948;73.006;2023-06-24T15:55:30;28.67;;;13.15;;